createdAt,value
2022-09-10T00:02:56.458Z,15.16
2022-09-10T00:06:05.542Z,14.83
2022-09-10T00:09:11.382Z,15.05
2022-09-10T00:12:16.130Z,15.80
2022-09-10T00:15:21.087Z,15.67
2022-09-10T00:18:25.780Z,15.96
2022-09-10T00:21:30.902Z,16.52
2022-09-10T00:24:35.557Z,16.52
2022-09-10T00:27:43.526Z,16.47
2022-09-10T00:30:51.033Z,16.49
2022-09-10T00:33:56.170Z,16.68
2022-09-10T00:37:01.060Z,17.05
2022-09-10T00:40:06.146Z,17.02
2022-09-10T00:43:23.003Z,17.26
2022-09-10T00:46:34.807Z,17.72
2022-09-10T00:49:44.668Z,18.48
2022-09-10T00:52:51.127Z,19.51
2022-09-10T00:56:15.766Z,20.41
2022-09-10T00:59:24.528Z,21.71
2022-09-10T01:02:29.485Z,22.29
2022-09-10T01:05:35.425Z,22.76
2022-09-10T01:08:40.462Z,23.03
2022-09-10T01:12:20.349Z,23.62
2022-09-10T01:15:28.595Z,24.10
2022-09-10T01:18:33.567Z,24.21
2022-09-10T01:22:16.031Z,24.62
2022-09-10T01:25:41.133Z,25.29
2022-09-10T01:29:05.331Z,24.92
2022-09-10T01:32:23.636Z,25.15
2022-09-10T01:35:44.121Z,25.48
2022-09-10T01:38:51.775Z,25.45
2022-09-10T01:41:58.164Z,25.80
2022-09-10T01:45:07.511Z,26.07
2022-09-10T01:48:51.632Z,26.63
2022-09-10T01:52:26.528Z,26.18
2022-09-10T01:55:46.356Z,25.98
2022-09-10T01:58:51.460Z,25.37
2022-09-10T02:02:20.744Z,25.21
2022-09-10T02:05:28.108Z,25.23
2022-09-10T02:08:38.601Z,24.91
2022-09-10T02:12:13.504Z,24.26
2022-09-10T02:15:32.457Z,24.36
2022-09-10T02:18:53.132Z,23.95
2022-09-10T02:21:59.867Z,24.54
2022-09-10T02:25:05.647Z,24.10
2022-09-10T02:28:10.496Z,24.10
2022-09-10T02:31:15.447Z,22.53
2022-09-10T02:34:22.736Z,23.23
2022-09-10T02:37:27.795Z,23.91
2022-09-10T02:40:32.737Z,23.77
2022-09-10T02:43:39.414Z,23.77
2022-09-10T02:46:46.074Z,23.72
2022-09-10T02:49:52.201Z,23.31
2022-09-10T02:52:56.641Z,23.20
2022-09-10T02:56:01.997Z,23.50
2022-09-10T02:59:07.322Z,23.01
2022-09-10T03:02:12.932Z,22.41
2022-09-10T03:05:18.920Z,23.07
2022-09-10T03:08:23.492Z,22.89
2022-09-10T03:11:28.389Z,22.70
2022-09-10T03:14:35.668Z,22.53
2022-09-10T03:17:40.387Z,23.00
2022-09-10T03:20:45.153Z,22.92
2022-09-10T03:23:52.239Z,22.76
2022-09-10T03:27:02.092Z,22.50
2022-09-10T03:30:07.680Z,22.67
2022-09-10T03:33:12.648Z,22.90
2022-09-10T03:36:19.144Z,23.07
2022-09-10T03:39:26.205Z,22.86
2022-09-10T03:42:30.741Z,22.58
2022-09-10T03:45:35.544Z,22.64
2022-09-10T03:48:41.601Z,22.98
2022-09-10T03:51:46.255Z,22.79
2022-09-10T03:54:52.042Z,22.57
2022-09-10T03:57:59.168Z,22.75
2022-09-10T04:01:04.129Z,22.77
2022-09-10T04:04:12.374Z,22.74
2022-09-10T04:07:17.189Z,22.48
2022-09-10T04:10:23.841Z,22.91
2022-09-10T04:13:28.652Z,22.77
2022-09-10T04:16:33.837Z,22.87
2022-09-10T04:19:38.983Z,22.26
2022-09-10T04:22:43.437Z,22.80
2022-09-10T04:25:48.199Z,22.70
2022-09-10T04:28:53.454Z,22.62
2022-09-10T04:31:59.181Z,22.64
2022-09-10T04:35:08.350Z,22.29
2022-09-10T04:38:13.687Z,22.43
2022-09-10T04:41:20.487Z,22.53
2022-09-10T04:44:25.841Z,22.61
2022-09-10T04:47:30.602Z,22.31
2022-09-10T04:50:36.460Z,22.97
2022-09-10T04:53:47.628Z,22.70
2022-09-10T04:56:53.137Z,22.55
2022-09-10T04:59:58.357Z,22.76
2022-09-10T05:03:02.810Z,22.90
2022-09-10T05:06:08.347Z,22.73
2022-09-10T05:09:13.207Z,22.74
2022-09-10T05:12:20.737Z,22.85
2022-09-10T05:15:25.570Z,22.72
2022-09-10T05:18:31.090Z,22.56
2022-09-10T05:21:35.806Z,22.79
2022-09-10T05:24:40.650Z,22.42
2022-09-10T05:27:45.428Z,22.48
2022-09-10T05:30:54.911Z,22.68
2022-09-10T05:34:02.078Z,22.36
2022-09-10T05:37:09.754Z,22.68
2022-09-10T05:40:17.904Z,23.06
2022-09-10T05:43:23.029Z,22.61
2022-09-10T05:46:31.895Z,22.70
2022-09-10T05:49:47.927Z,22.72
2022-09-10T05:52:53.328Z,22.52
2022-09-10T05:55:58.278Z,22.80
2022-09-10T05:59:05.069Z,22.65
2022-09-10T06:02:23.235Z,22.92
2022-09-10T06:05:30.250Z,22.75
2022-09-10T06:08:36.624Z,23.02
2022-09-10T06:11:51.290Z,22.63
2022-09-10T06:14:57.294Z,22.98
2022-09-10T06:18:02.989Z,22.61
2022-09-10T06:21:13.588Z,22.45
2022-09-10T06:24:25.351Z,22.80
2022-09-10T06:27:33.530Z,22.73
2022-09-10T06:30:40.495Z,22.89
2022-09-10T06:33:47.885Z,22.77
2022-09-10T06:36:58.119Z,22.64
2022-09-10T06:40:05.400Z,22.79
2022-09-10T06:43:11.247Z,22.50
2022-09-10T06:50:02.493Z,22.62
2022-09-10T06:53:12.472Z,22.69
2022-09-10T06:56:17.362Z,22.31
2022-09-10T06:59:22.693Z,22.62
2022-09-10T07:02:28.931Z,22.22
2022-09-10T07:05:37.050Z,22.23
2022-09-10T07:08:42.471Z,22.31
2022-09-10T07:11:49.906Z,22.37
2022-09-10T07:14:55.617Z,22.40
2022-09-10T07:18:01.336Z,22.14
2022-09-10T07:21:16.345Z,22.17
2022-09-10T07:24:22.841Z,21.87
2022-09-10T07:27:56.948Z,21.85
2022-09-10T07:31:11.643Z,21.86
2022-09-10T07:34:17.298Z,21.80
2022-09-10T07:37:23.463Z,22.24
2022-09-10T07:40:29.122Z,21.84
2022-09-10T07:43:35.361Z,21.61
2022-09-10T07:46:39.965Z,21.91
2022-09-10T07:49:47.137Z,21.88
2022-09-10T07:52:53.606Z,21.36
2022-09-10T07:56:02.810Z,21.71
2022-09-10T07:59:12.425Z,21.58
2022-09-10T08:02:23.033Z,21.41
2022-09-10T08:05:34.117Z,21.27
2022-09-10T08:08:40.813Z,21.65
2022-09-10T08:11:48.683Z,21.44
2022-09-10T08:14:57.731Z,21.21
2022-09-10T08:18:04.939Z,21.40
2022-09-10T08:21:10.152Z,20.79
2022-09-10T08:24:15.616Z,20.86
2022-09-10T08:27:24.932Z,20.60
2022-09-10T08:31:52.421Z,20.12
2022-09-10T08:35:05.073Z,20.41
2022-09-10T08:38:11.840Z,20.30
2022-09-10T08:41:24.178Z,20.47
2022-09-10T08:44:32.272Z,20.29
2022-09-10T08:47:37.941Z,20.14
2022-09-10T08:51:04.150Z,19.78
2022-09-10T08:54:19.132Z,19.57
2022-09-10T08:57:31.537Z,19.65
2022-09-10T09:00:41.229Z,19.48
2022-09-10T09:03:51.512Z,19.16
2022-09-10T09:07:04.387Z,19.17
2022-09-10T09:10:26.959Z,19.35
2022-09-10T09:13:50.349Z,19.35
2022-09-10T09:17:18.239Z,18.37
2022-09-10T09:20:32.384Z,18.86
2022-09-10T09:24:14.680Z,18.42
2022-09-10T09:27:42.543Z,18.02
2022-09-10T09:30:50.860Z,18.15
2022-09-10T09:34:04.021Z,17.79
2022-09-10T09:37:31.263Z,17.52
2022-09-10T09:40:50.940Z,17.48
2022-09-10T09:44:04.435Z,17.30
2022-09-10T09:47:10.698Z,17.25
2022-09-10T09:50:22.175Z,17.04
2022-09-10T09:53:28.782Z,17.05
2022-09-10T09:56:38.431Z,17.15
2022-09-10T09:59:44.856Z,17.11
2022-09-10T10:02:50.488Z,17.31
2022-09-10T10:06:10.319Z,17.21
2022-09-10T10:09:30.267Z,17.11
2022-09-10T10:12:36.497Z,17.27
2022-09-10T10:15:45.332Z,16.92
2022-09-10T10:18:52.038Z,16.68
2022-09-10T10:22:00.632Z,16.30
2022-09-10T10:25:27.912Z,16.74
2022-09-10T10:28:32.749Z,16.40
2022-09-10T10:31:45.976Z,16.29
2022-09-10T10:35:20.972Z,16.23
2022-09-10T10:38:30.387Z,16.29
2022-09-10T10:41:34.981Z,16.34
2022-09-10T10:45:02.171Z,15.86
2022-09-10T10:48:20.484Z,16.20
2022-09-10T10:51:58.661Z,16.13
2022-09-10T10:55:25.298Z,15.68
2022-09-10T10:59:07.413Z,15.88
2022-09-10T11:02:17.987Z,15.77
2022-09-10T11:05:32.594Z,15.45
2022-09-10T11:08:56.120Z,15.61
2022-09-10T11:12:29.401Z,15.19
2022-09-10T11:15:45.387Z,15.26
2022-09-10T11:19:03.987Z,15.13
2022-09-10T11:22:14.828Z,14.81
2022-09-10T11:25:30.124Z,15.29
2022-09-10T11:28:44.938Z,15.22
2022-09-10T11:32:21.167Z,14.83
2022-09-10T11:35:54.001Z,14.75
2022-09-10T11:39:20.115Z,15.05
2022-09-10T11:42:31.427Z,14.82
2022-09-10T11:45:58.276Z,14.79
2022-09-10T11:49:08.849Z,14.70
2022-09-10T11:52:13.243Z,14.54
2022-09-10T11:55:19.020Z,14.15
2022-09-10T11:58:49.907Z,14.48
2022-09-10T12:02:28.242Z,14.59
2022-09-10T12:05:51.643Z,14.43
2022-09-10T12:08:56.882Z,14.35
2022-09-10T12:12:31.493Z,13.68
2022-09-10T12:15:37.951Z,13.93
2022-09-10T12:18:46.423Z,13.80
2022-09-10T12:21:55.906Z,13.89
2022-09-10T12:25:03.860Z,14.04
2022-09-10T12:28:43.421Z,14.07
2022-09-10T12:32:14.447Z,14.04
2022-09-10T12:35:38.442Z,13.89
2022-09-10T12:39:21.031Z,13.84
2022-09-10T12:42:34.249Z,13.82
2022-09-10T12:46:19.131Z,13.76
2022-09-10T12:49:24.364Z,13.66
2022-09-10T12:52:53.998Z,13.59
2022-09-10T12:56:33.840Z,13.60
2022-09-10T13:00:05.636Z,13.54
2022-09-10T13:03:18.541Z,13.11
2022-09-10T13:06:43.537Z,12.68
2022-09-10T13:10:00.247Z,12.76
2022-09-10T13:13:09.459Z,12.96
2022-09-10T13:16:34.127Z,13.32
2022-09-10T13:19:45.123Z,13.27
2022-09-10T13:23:13.098Z,12.25
2022-09-10T13:26:26.850Z,13.19
2022-09-10T13:29:37.922Z,13.22
2022-09-10T13:33:32.158Z,13.22
2022-09-10T13:37:17.719Z,13.18
2022-09-10T13:40:57.472Z,12.96
2022-09-10T13:44:53.183Z,12.84
2022-09-10T13:48:15.939Z,12.93
2022-09-10T13:51:34.413Z,12.72
2022-09-10T13:54:48.174Z,11.97
2022-09-10T13:58:00.358Z,12.85
2022-09-10T14:01:06.486Z,12.26
2022-09-10T14:04:40.877Z,12.20
2022-09-10T14:07:58.540Z,12.73
2022-09-10T14:11:32.736Z,12.47
2022-09-10T14:14:49.597Z,12.68
2022-09-10T14:18:13.844Z,12.57
2022-09-10T14:21:20.635Z,12.48
2022-09-10T14:29:19.978Z,12.36
2022-09-10T14:32:38.350Z,12.04
2022-09-10T14:35:50.315Z,12.40
2022-09-10T14:39:04.104Z,12.42
2022-09-10T14:42:11.935Z,12.40
2022-09-10T14:45:39.374Z,12.29
2022-09-10T14:49:05.424Z,11.90
2022-09-10T14:52:12.909Z,12.17
2022-09-10T14:55:19.263Z,11.49
2022-09-10T14:58:24.391Z,11.06
2022-09-10T15:01:30.259Z,11.49
2022-09-10T15:04:35.465Z,11.68
2022-09-10T15:07:41.131Z,11.28
2022-09-10T15:10:45.606Z,11.36
2022-09-10T15:13:50.820Z,11.26
2022-09-10T15:16:57.543Z,11.57
2022-09-10T15:20:04.488Z,11.18
2022-09-10T15:23:09.401Z,11.13
2022-09-10T15:26:16.221Z,11.71
2022-09-10T15:29:21.527Z,11.80
2022-09-10T15:32:26.562Z,11.76
2022-09-10T15:35:32.147Z,11.46
2022-09-10T15:38:37.433Z,11.21
2022-09-10T15:41:44.354Z,10.51
2022-09-10T15:44:49.162Z,11.10
2022-09-10T15:47:55.418Z,10.97
2022-09-10T15:51:14.750Z,10.63
2022-09-10T15:54:19.712Z,11.39
2022-09-10T15:57:24.858Z,11.46
2022-09-10T16:00:29.652Z,11.25
2022-09-10T16:03:35.521Z,10.58
2022-09-10T16:06:41.467Z,11.02
2022-09-10T16:09:46.639Z,11.49
2022-09-10T16:12:51.649Z,10.80
2022-09-10T16:16:02.445Z,11.38
2022-09-10T16:19:08.103Z,10.97
2022-09-10T16:22:16.408Z,10.67
2022-09-10T16:25:25.727Z,11.03
2022-09-10T16:28:31.369Z,11.04
2022-09-10T16:31:41.671Z,11.09
2022-09-10T16:34:49.361Z,10.65
2022-09-10T16:37:54.418Z,10.86
2022-09-10T16:41:08.364Z,10.39
2022-09-10T16:44:15.747Z,10.70
2022-09-10T16:47:20.461Z,10.78
2022-09-10T16:50:45.872Z,10.84
2022-09-10T16:54:06.825Z,9.94
2022-09-10T16:57:11.940Z,10.77
2022-09-10T17:00:17.620Z,10.88
2022-09-10T17:04:07.839Z,10.78
2022-09-10T17:07:41.002Z,10.74
2022-09-10T17:10:46.740Z,9.87
2022-09-10T17:13:51.852Z,10.25
2022-09-10T17:16:57.365Z,10.51
2022-09-10T17:20:02.311Z,10.11
2022-09-10T17:23:08.855Z,10.11
2022-09-10T17:26:14.286Z,9.84
2022-09-10T17:29:23.214Z,10.35
2022-09-10T17:32:28.291Z,9.35
2022-09-10T17:35:33.292Z,9.70
2022-09-10T17:38:38.585Z,9.33
2022-09-10T17:41:44.166Z,10.31
2022-09-10T17:44:50.337Z,10.27
2022-09-10T17:47:55.367Z,10.31
2022-09-10T17:51:01.228Z,10.34
2022-09-10T17:54:06.066Z,9.80
2022-09-10T17:57:11.881Z,10.06
2022-09-10T18:00:17.231Z,10.21
2022-09-10T18:03:22.048Z,9.98
2022-09-10T18:06:29.802Z,9.88
2022-09-10T18:09:34.779Z,9.34
2022-09-10T18:12:40.147Z,9.65
2022-09-10T18:15:48.231Z,9.31
2022-09-10T18:18:55.267Z,9.19
2022-09-10T18:22:04.550Z,9.02
2022-09-10T18:25:20.968Z,8.63
2022-09-10T18:28:29.736Z,9.20
2022-09-10T18:31:37.908Z,9.68
2022-09-10T18:34:46.218Z,9.64
2022-09-10T18:37:52.867Z,8.85
2022-09-10T18:41:03.393Z,9.57
2022-09-10T18:44:17.195Z,9.41
2022-09-10T18:47:41.310Z,9.35
2022-09-10T18:50:48.447Z,9.17
2022-09-10T18:53:55.964Z,9.05
2022-09-10T18:57:02.341Z,9.20
2022-09-10T19:00:07.832Z,9.15
2022-09-10T19:03:12.930Z,8.24
2022-09-10T19:06:20.899Z,8.93
2022-09-10T19:09:28.609Z,9.33
2022-09-10T19:12:33.731Z,9.48
2022-09-10T19:15:38.798Z,9.47
2022-09-10T19:18:44.961Z,9.34
2022-09-10T19:21:55.562Z,8.75
2022-09-10T19:25:00.435Z,8.82
2022-09-10T19:28:07.359Z,8.59
2022-09-10T19:31:16.766Z,9.10
2022-09-10T19:34:23.027Z,8.26
2022-09-10T19:37:28.669Z,8.73
2022-09-10T19:40:33.585Z,8.67
2022-09-10T19:43:38.602Z,8.81
2022-09-10T19:46:46.336Z,9.12
2022-09-10T19:49:51.996Z,9.37
2022-09-10T19:52:57.022Z,8.92
2022-09-10T19:56:08.623Z,9.31
2022-09-10T19:59:13.808Z,8.83
2022-09-10T20:02:19.929Z,9.53
2022-09-10T20:05:25.523Z,9.49
2022-09-10T20:08:30.415Z,8.98
2022-09-10T20:11:36.507Z,9.21
2022-09-10T20:14:41.506Z,9.67
2022-09-10T20:17:52.161Z,9.10
2022-09-10T20:20:59.309Z,9.43
2022-09-10T20:24:04.740Z,9.68
2022-09-10T20:27:09.782Z,9.17
2022-09-10T20:30:15.258Z,9.74
2022-09-10T20:33:20.965Z,9.75
2022-09-10T20:36:28.509Z,9.83
2022-09-10T20:39:49.880Z,9.85
2022-09-10T20:43:03.058Z,9.12
2022-09-10T20:46:22.486Z,9.97
2022-09-10T20:49:50.936Z,9.92
2022-09-10T20:53:17.749Z,9.92
2022-09-10T20:56:33.195Z,9.90
2022-09-10T21:11:29.928Z,10.65
2022-09-10T21:14:49.855Z,11.06
2022-09-10T21:18:05.711Z,11.29
2022-09-10T21:21:36.060Z,11.57
2022-09-10T21:24:41.297Z,11.61
2022-09-10T21:27:47.828Z,11.46
2022-09-10T21:30:52.929Z,13.22
2022-09-10T21:34:02.947Z,13.05
2022-09-10T21:37:08.215Z,13.27
2022-09-10T21:40:13.498Z,14.19
2022-09-10T21:43:25.037Z,15.59
2022-09-10T21:57:14.205Z,19.52
2022-09-10T22:41:11.041Z,16.76
2022-09-10T22:44:18.732Z,15.81
2022-09-10T22:47:28.908Z,16.13
2022-09-10T22:54:00.179Z,16.46
2022-09-10T22:57:41.129Z,16.20
2022-09-10T23:02:41.999Z,15.98
2022-09-10T23:06:05.104Z,16.09
2022-09-10T23:09:16.913Z,16.06
2022-09-10T23:12:23.543Z,15.65
2022-09-10T23:15:28.563Z,16.03
2022-09-10T23:18:34.028Z,15.84
2022-09-10T23:21:46.669Z,16.04
2022-09-10T23:24:52.058Z,17.13
2022-09-10T23:27:57.478Z,18.02
2022-09-10T23:31:15.964Z,17.46
2022-09-10T23:34:22.517Z,17.56
2022-09-10T23:37:45.829Z,17.52
2022-09-10T23:40:50.481Z,16.83
2022-09-10T23:43:55.631Z,16.92
2022-09-10T23:47:01.120Z,16.76
2022-09-10T23:50:07.087Z,16.68
2022-09-10T23:53:12.272Z,17.19
2022-09-10T23:56:19.959Z,16.71
2022-09-10T23:59:24.841Z,16.82
